sensor_id;sensor_type;location;lat;lon;timestamp;temperature;humidity
11647;DHT22;5880;52.342;9.662;2023-04-24T00:00:11;16.10;56.10
11647;DHT22;5880;52.342;9.662;2023-04-24T00:02:44;16.10;56.10
11647;DHT22;5880;52.342;9.662;2023-04-24T00:05:15;16.10;56.10
11647;DHT22;5880;52.342;9.662;2023-04-24T00:07:44;16.10;56.00
11647;DHT22;5880;52.342;9.662;2023-04-24T00:10:11;16.10;55.90
11647;DHT22;5880;52.342;9.662;2023-04-24T00:12:38;16.00;55.90
11647;DHT22;5880;52.342;9.662;2023-04-24T00:15:04;16.00;55.80
11647;DHT22;5880;52.342;9.662;2023-04-24T00:17:30;16.00;55.80
11647;DHT22;5880;52.342;9.662;2023-04-24T00:19:56;16.00;55.90
11647;DHT22;5880;52.342;9.662;2023-04-24T00:22:26;16.00;55.90
11647;DHT22;5880;52.342;9.662;2023-04-24T00:24:53;15.90;55.90
11647;DHT22;5880;52.342;9.662;2023-04-24T00:27:19;15.90;56.00
11647;DHT22;5880;52.342;9.662;2023-04-24T00:29:45;15.90;55.80
11647;DHT22;5880;52.342;9.662;2023-04-24T00:32:11;15.90;55.90
11647;DHT22;5880;52.342;9.662;2023-04-24T00:34:37;15.90;55.90
11647;DHT22;5880;52.342;9.662;2023-04-24T00:37:02;15.90;56.00
11647;DHT22;5880;52.342;9.662;2023-04-24T00:39:28;16.60;56.20
11647;DHT22;5880;52.342;9.662;2023-04-24T00:41:54;15.90;55.90
11647;DHT22;5880;52.342;9.662;2023-04-24T00:44:20;15.90;56.00
11647;DHT22;5880;52.342;9.662;2023-04-24T00:46:46;15.80;55.80
11647;DHT22;5880;52.342;9.662;2023-04-24T00:49:18;15.80;55.90
11647;DHT22;5880;52.342;9.662;2023-04-24T00:51:44;15.70;56.10
11647;DHT22;5880;52.342;9.662;2023-04-24T00:54:13;15.70;56.00
11647;DHT22;5880;52.342;9.662;2023-04-24T00:56:41;15.70;55.70
11647;DHT22;5880;52.342;9.662;2023-04-24T00:59:07;15.60;55.50
11647;DHT22;5880;52.342;9.662;2023-04-24T01:01:35;15.60;55.40
11647;DHT22;5880;52.342;9.662;2023-04-24T01:04:01;15.60;55.50
11647;DHT22;5880;52.342;9.662;2023-04-24T01:06:29;15.60;55.30
11647;DHT22;5880;52.342;9.662;2023-04-24T01:08:57;15.60;55.10
11647;DHT22;5880;52.342;9.662;2023-04-24T01:11:25;15.50;54.90
11647;DHT22;5880;52.342;9.662;2023-04-24T01:13:51;15.50;54.80
11647;DHT22;5880;52.342;9.662;2023-04-24T01:16:19;15.50;54.50
11647;DHT22;5880;52.342;9.662;2023-04-24T01:18:46;15.50;54.20
11647;DHT22;5880;52.342;9.662;2023-04-24T01:21:14;15.50;54.30
11647;DHT22;5880;52.342;9.662;2023-04-24T01:23:45;15.50;54.20
11647;DHT22;5880;52.342;9.662;2023-04-24T01:26:12;15.40;54.00
11647;DHT22;5880;52.342;9.662;2023-04-24T01:28:39;15.10;53.80
11647;DHT22;5880;52.342;9.662;2023-04-24T01:31:05;15.40;53.90
11647;DHT22;5880;52.342;9.662;2023-04-24T01:33:31;15.40;53.80
11647;DHT22;5880;52.342;9.662;2023-04-24T01:35:57;15.40;53.60
11647;DHT22;5880;52.342;9.662;2023-04-24T01:38:23;15.30;53.60
11647;DHT22;5880;52.342;9.662;2023-04-24T01:40:49;15.30;53.50
11647;DHT22;5880;52.342;9.662;2023-04-24T01:43:16;15.30;53.50
11647;DHT22;5880;52.342;9.662;2023-04-24T01:45:42;15.30;53.40
11647;DHT22;5880;52.342;9.662;2023-04-24T01:48:08;15.30;53.50
11647;DHT22;5880;52.342;9.662;2023-04-24T01:50:34;15.30;53.50
11647;DHT22;5880;52.342;9.662;2023-04-24T01:53:00;15.30;53.40
11647;DHT22;5880;52.342;9.662;2023-04-24T01:55:25;15.20;53.30
11647;DHT22;5880;52.342;9.662;2023-04-24T01:57:52;15.20;53.40
11647;DHT22;5880;52.342;9.662;2023-04-24T02:00:21;15.20;53.50
11647;DHT22;5880;52.342;9.662;2023-04-24T02:02:46;15.20;53.50
11647;DHT22;5880;52.342;9.662;2023-04-24T02:05:12;15.20;53.70
11647;DHT22;5880;52.342;9.662;2023-04-24T02:07:38;15.10;53.70
11647;DHT22;5880;52.342;9.662;2023-04-24T02:10:04;15.10;53.70
11647;DHT22;5880;52.342;9.662;2023-04-24T02:12:30;15.10;53.90
11647;DHT22;5880;52.342;9.662;2023-04-24T02:14:56;15.10;54.00
11647;DHT22;5880;52.342;9.662;2023-04-24T02:17:21;15.10;54.10
11647;DHT22;5880;52.342;9.662;2023-04-24T02:19:47;15.10;54.10
11647;DHT22;5880;52.342;9.662;2023-04-24T02:22:13;15.10;54.10
11647;DHT22;5880;52.342;9.662;2023-04-24T02:24:39;15.00;54.00
11647;DHT22;5880;52.342;9.662;2023-04-24T02:27:05;15.00;54.00
11647;DHT22;5880;52.342;9.662;2023-04-24T02:29:31;15.00;54.00
11647;DHT22;5880;52.342;9.662;2023-04-24T02:31:56;15.00;54.10
11647;DHT22;5880;52.342;9.662;2023-04-24T02:34:23;15.00;54.00
11647;DHT22;5880;52.342;9.662;2023-04-24T02:36:49;15.00;54.20
11647;DHT22;5880;52.342;9.662;2023-04-24T02:39:15;15.00;54.10
11647;DHT22;5880;52.342;9.662;2023-04-24T02:41:42;15.00;54.10
11647;DHT22;5880;52.342;9.662;2023-04-24T02:44:08;15.00;54.20
11647;DHT22;5880;52.342;9.662;2023-04-24T02:46:35;14.90;54.20
11647;DHT22;5880;52.342;9.662;2023-04-24T02:49:00;14.90;54.10
11647;DHT22;5880;52.342;9.662;2023-04-24T02:51:26;14.90;54.20
11647;DHT22;5880;52.342;9.662;2023-04-24T02:53:52;14.90;54.20
11647;DHT22;5880;52.342;9.662;2023-04-24T02:56:18;14.80;54.10
11647;DHT22;5880;52.342;9.662;2023-04-24T02:58:43;14.80;54.00
11647;DHT22;5880;52.342;9.662;2023-04-24T03:01:09;14.80;54.00
11647;DHT22;5880;52.342;9.662;2023-04-24T03:03:36;14.80;54.00
11647;DHT22;5880;52.342;9.662;2023-04-24T03:06:02;14.20;53.60
11647;DHT22;5880;52.342;9.662;2023-04-24T03:08:31;14.80;54.00
11647;DHT22;5880;52.342;9.662;2023-04-24T03:10:57;14.80;54.80
11647;DHT22;5880;52.342;9.662;2023-04-24T03:13:23;14.70;54.80
11647;DHT22;5880;52.342;9.662;2023-04-24T03:15:48;14.70;54.00
11647;DHT22;5880;52.342;9.662;2023-04-24T03:18:14;14.70;54.00
11647;DHT22;5880;52.342;9.662;2023-04-24T03:20:40;14.70;54.10
11647;DHT22;5880;52.342;9.662;2023-04-24T03:23:06;14.60;54.00
11647;DHT22;5880;52.342;9.662;2023-04-24T03:25:31;14.60;53.90
11647;DHT22;5880;52.342;9.662;2023-04-24T03:27:57;14.60;53.90
11647;DHT22;5880;52.342;9.662;2023-04-24T03:30:23;14.60;54.00
11647;DHT22;5880;52.342;9.662;2023-04-24T03:32:48;14.60;53.80
11647;DHT22;5880;52.342;9.662;2023-04-24T03:35:14;14.50;53.90
11647;DHT22;5880;52.342;9.662;2023-04-24T03:37:40;14.50;53.90
11647;DHT22;5880;52.342;9.662;2023-04-24T03:40:06;14.50;53.90
11647;DHT22;5880;52.342;9.662;2023-04-24T03:42:33;14.50;54.00
11647;DHT22;5880;52.342;9.662;2023-04-24T03:44:59;14.40;53.90
11647;DHT22;5880;52.342;9.662;2023-04-24T03:47:24;14.40;53.90
11647;DHT22;5880;52.342;9.662;2023-04-24T03:49:50;14.40;54.10
11647;DHT22;5880;52.342;9.662;2023-04-24T03:52:16;14.40;54.20
11647;DHT22;5880;52.342;9.662;2023-04-24T03:54:42;14.40;54.30
11647;DHT22;5880;52.342;9.662;2023-04-24T03:57:07;14.40;55.30
11647;DHT22;5880;52.342;9.662;2023-04-24T03:59:33;14.30;54.50
11647;DHT22;5880;52.342;9.662;2023-04-24T04:01:58;14.30;54.50
11647;DHT22;5880;52.342;9.662;2023-04-24T04:04:24;14.30;54.70
11647;DHT22;5880;52.342;9.662;2023-04-24T04:06:50;14.30;54.90
11647;DHT22;5880;52.342;9.662;2023-04-24T04:09:16;14.20;55.00
11647;DHT22;5880;52.342;9.662;2023-04-24T04:11:42;14.20;55.30
11647;DHT22;5880;52.342;9.662;2023-04-24T04:14:07;14.20;55.50
11647;DHT22;5880;52.342;9.662;2023-04-24T04:16:33;14.20;55.40
11647;DHT22;5880;52.342;9.662;2023-04-24T04:18:59;14.20;55.40
11647;DHT22;5880;52.342;9.662;2023-04-24T04:21:24;14.10;55.30
11647;DHT22;5880;52.342;9.662;2023-04-24T04:23:51;14.10;55.60
11647;DHT22;5880;52.342;9.662;2023-04-24T04:26:17;14.10;55.60
11647;DHT22;5880;52.342;9.662;2023-04-24T04:28:44;14.10;55.80
11647;DHT22;5880;52.342;9.662;2023-04-24T04:31:10;14.00;55.70
11647;DHT22;5880;52.342;9.662;2023-04-24T04:33:35;14.00;55.80
11647;DHT22;5880;52.342;9.662;2023-04-24T04:36:03;14.00;55.90
11647;DHT22;5880;52.342;9.662;2023-04-24T04:38:29;14.00;56.00
11647;DHT22;5880;52.342;9.662;2023-04-24T04:40:55;13.90;56.10
11647;DHT22;5880;52.342;9.662;2023-04-24T04:43:24;13.90;56.30
11647;DHT22;5880;52.342;9.662;2023-04-24T04:45:50;13.90;56.40
11647;DHT22;5880;52.342;9.662;2023-04-24T04:48:17;13.90;56.50
11647;DHT22;5880;52.342;9.662;2023-04-24T04:50:44;13.80;56.40
11647;DHT22;5880;52.342;9.662;2023-04-24T04:53:10;13.90;56.70
11647;DHT22;5880;52.342;9.662;2023-04-24T04:55:36;13.90;56.90
11647;DHT22;5880;52.342;9.662;2023-04-24T04:58:02;13.90;57.00
11647;DHT22;5880;52.342;9.662;2023-04-24T05:00:28;13.90;57.10
11647;DHT22;5880;52.342;9.662;2023-04-24T05:02:59;13.90;57.10
11647;DHT22;5880;52.342;9.662;2023-04-24T05:05:24;14.00;57.10
11647;DHT22;5880;52.342;9.662;2023-04-24T05:07:50;14.00;57.20
11647;DHT22;5880;52.342;9.662;2023-04-24T05:10:16;14.10;57.20
11647;DHT22;5880;52.342;9.662;2023-04-24T05:12:41;14.10;57.30
11647;DHT22;5880;52.342;9.662;2023-04-24T05:15:07;14.10;57.40
11647;DHT22;5880;52.342;9.662;2023-04-24T05:17:33;14.20;57.50
11647;DHT22;5880;52.342;9.662;2023-04-24T05:19:59;14.20;57.60
11647;DHT22;5880;52.342;9.662;2023-04-24T05:22:25;14.20;57.70
11647;DHT22;5880;52.342;9.662;2023-04-24T05:24:51;14.30;57.70
11647;DHT22;5880;52.342;9.662;2023-04-24T05:27:17;14.30;57.90
11647;DHT22;5880;52.342;9.662;2023-04-24T05:29:43;14.40;58.00
11647;DHT22;5880;52.342;9.662;2023-04-24T05:32:09;14.50;59.00
11647;DHT22;5880;52.342;9.662;2023-04-24T05:34:34;14.70;60.70
11647;DHT22;5880;52.342;9.662;2023-04-24T05:37:00;15.00;62.30
11647;DHT22;5880;52.342;9.662;2023-04-24T05:39:26;15.30;63.40
11647;DHT22;5880;52.342;9.662;2023-04-24T05:41:52;15.80;64.10
11647;DHT22;5880;52.342;9.662;2023-04-24T05:44:18;16.30;63.60
11647;DHT22;5880;52.342;9.662;2023-04-24T05:46:43;16.70;60.90
11647;DHT22;5880;52.342;9.662;2023-04-24T05:49:09;17.00;58.30
11647;DHT22;5880;52.342;9.662;2023-04-24T05:51:35;17.10;56.40
11647;DHT22;5880;52.342;9.662;2023-04-24T05:54:00;17.20;55.20
11647;DHT22;5880;52.342;9.662;2023-04-24T05:56:27;17.10;54.10
11647;DHT22;5880;52.342;9.662;2023-04-24T05:58:52;17.10;53.50
11647;DHT22;5880;52.342;9.662;2023-04-24T06:01:18;17.00;52.80
11647;DHT22;5880;52.342;9.662;2023-04-24T06:03:44;16.90;52.50
11647;DHT22;5880;52.342;9.662;2023-04-24T06:06:10;16.70;51.80
11647;DHT22;5880;52.342;9.662;2023-04-24T06:08:36;16.60;51.50
11647;DHT22;5880;52.342;9.662;2023-04-24T06:11:02;16.50;51.60
11647;DHT22;5880;52.342;9.662;2023-04-24T06:13:27;16.40;51.30
11647;DHT22;5880;52.342;9.662;2023-04-24T06:15:53;16.20;51.00
11647;DHT22;5880;52.342;9.662;2023-04-24T06:18:19;16.10;51.10
11647;DHT22;5880;52.342;9.662;2023-04-24T06:20:46;16.00;51.10
11647;DHT22;5880;52.342;9.662;2023-04-24T06:23:12;15.80;51.00
11647;DHT22;5880;52.342;9.662;2023-04-24T06:25:38;15.80;51.10
11647;DHT22;5880;52.342;9.662;2023-04-24T06:28:04;15.60;51.10
11647;DHT22;5880;52.342;9.662;2023-04-24T06:30:30;15.60;51.50
11647;DHT22;5880;52.342;9.662;2023-04-24T06:32:56;15.50;51.80
11647;DHT22;5880;52.342;9.662;2023-04-24T06:35:22;15.40;51.90
11647;DHT22;5880;52.342;9.662;2023-04-24T06:37:48;15.40;52.10
11647;DHT22;5880;52.342;9.662;2023-04-24T06:40:14;15.40;52.30
11647;DHT22;5880;52.342;9.662;2023-04-24T06:42:40;15.40;52.40
11647;DHT22;5880;52.342;9.662;2023-04-24T06:45:06;15.40;52.60
11647;DHT22;5880;52.342;9.662;2023-04-24T06:47:32;15.40;53.20
11647;DHT22;5880;52.342;9.662;2023-04-24T06:49:58;15.50;54.00
11647;DHT22;5880;52.342;9.662;2023-04-24T06:52:23;15.60;54.20
11647;DHT22;5880;52.342;9.662;2023-04-24T06:54:49;15.70;55.30
11647;DHT22;5880;52.342;9.662;2023-04-24T06:57:15;15.90;56.70
11647;DHT22;5880;52.342;9.662;2023-04-24T06:59:44;16.10;57.60
11647;DHT22;5880;52.342;9.662;2023-04-24T07:02:09;16.40;56.50
11647;DHT22;5880;52.342;9.662;2023-04-24T07:04:35;16.60;55.00
11647;DHT22;5880;52.342;9.662;2023-04-24T07:07:00;16.80;53.70
11647;DHT22;5880;52.342;9.662;2023-04-24T07:09:27;16.80;52.70
11647;DHT22;5880;52.342;9.662;2023-04-24T07:11:54;16.90;51.90
11647;DHT22;5880;52.342;9.662;2023-04-24T07:14:22;16.80;51.40
11647;DHT22;5880;52.342;9.662;2023-04-24T07:16:48;16.80;51.40
11647;DHT22;5880;52.342;9.662;2023-04-24T07:19:13;16.70;51.50
11647;DHT22;5880;52.342;9.662;2023-04-24T07:21:39;16.70;51.60
11647;DHT22;5880;52.342;9.662;2023-04-24T07:24:05;16.60;51.40
11647;DHT22;5880;52.342;9.662;2023-04-24T07:26:34;16.60;51.40
11647;DHT22;5880;52.342;9.662;2023-04-24T07:29:01;16.50;51.50
11647;DHT22;5880;52.342;9.662;2023-04-24T07:31:27;16.50;53.40
11647;DHT22;5880;52.342;9.662;2023-04-24T07:33:52;16.60;54.30
11647;DHT22;5880;52.342;9.662;2023-04-24T07:36:18;16.70;54.80
11647;DHT22;5880;52.342;9.662;2023-04-24T07:38:47;17.00;55.70
11647;DHT22;5880;52.342;9.662;2023-04-24T07:41:14;17.40;55.20
11647;DHT22;5880;52.342;9.662;2023-04-24T07:43:40;17.80;58.10
11647;DHT22;5880;52.342;9.662;2023-04-24T07:46:07;18.30;57.70
11647;DHT22;5880;52.342;9.662;2023-04-24T07:48:33;18.80;57.10
11647;DHT22;5880;52.342;9.662;2023-04-24T07:50:59;19.10;55.10
11647;DHT22;5880;52.342;9.662;2023-04-24T07:53:25;19.50;53.50
11647;DHT22;5880;52.342;9.662;2023-04-24T07:55:51;19.80;53.40
11647;DHT22;5880;52.342;9.662;2023-04-24T07:58:16;19.90;52.00
11647;DHT22;5880;52.342;9.662;2023-04-24T08:00:42;20.10;50.90
11647;DHT22;5880;52.342;9.662;2023-04-24T08:03:08;20.30;50.70
11647;DHT22;5880;52.342;9.662;2023-04-24T08:05:33;20.40;49.60
11647;DHT22;5880;52.342;9.662;2023-04-24T08:07:59;20.40;49.80
11647;DHT22;5880;52.342;9.662;2023-04-24T08:10:25;20.40;48.80
11647;DHT22;5880;52.342;9.662;2023-04-24T08:12:51;20.40;49.00
11647;DHT22;5880;52.342;9.662;2023-04-24T08:15:17;20.40;48.80
11647;DHT22;5880;52.342;9.662;2023-04-24T08:17:43;20.30;48.50
11647;DHT22;5880;52.342;9.662;2023-04-24T08:20:10;20.30;46.90
11647;DHT22;5880;52.342;9.662;2023-04-24T08:22:42;20.10;45.50
11647;DHT22;5880;52.342;9.662;2023-04-24T08:25:09;19.90;44.50
11647;DHT22;5880;52.342;9.662;2023-04-24T08:27:36;19.80;43.60
11647;DHT22;5880;52.342;9.662;2023-04-24T08:30:03;19.50;43.70
11647;DHT22;5880;52.342;9.662;2023-04-24T08:32:30;19.30;43.70
11647;DHT22;5880;52.342;9.662;2023-04-24T08:34:56;19.10;43.20
11647;DHT22;5880;52.342;9.662;2023-04-24T08:37:23;18.90;43.40
11647;DHT22;5880;52.342;9.662;2023-04-24T08:39:52;18.60;43.50
11647;DHT22;5880;52.342;9.662;2023-04-24T08:42:19;18.40;44.00
11647;DHT22;5880;52.342;9.662;2023-04-24T08:44:46;18.30;45.00
11647;DHT22;5880;52.342;9.662;2023-04-24T08:47:12;18.20;45.80
11647;DHT22;5880;52.342;9.662;2023-04-24T08:49:38;18.20;46.30
11647;DHT22;5880;52.342;9.662;2023-04-24T08:52:08;18.20;46.30
11647;DHT22;5880;52.342;9.662;2023-04-24T08:54:35;18.10;45.60
11647;DHT22;5880;52.342;9.662;2023-04-24T08:57:02;18.10;45.50
11647;DHT22;5880;52.342;9.662;2023-04-24T08:59:30;18.10;45.70
11647;DHT22;5880;52.342;9.662;2023-04-24T09:01:57;18.10;46.00
11647;DHT22;5880;52.342;9.662;2023-04-24T09:04:24;18.10;46.20
11647;DHT22;5880;52.342;9.662;2023-04-24T09:06:58;18.10;46.30
11647;DHT22;5880;52.342;9.662;2023-04-24T09:09:25;18.20;45.20
11647;DHT22;5880;52.342;9.662;2023-04-24T09:11:51;18.20;45.30
11647;DHT22;5880;52.342;9.662;2023-04-24T09:14:20;18.20;44.70
11647;DHT22;5880;52.342;9.662;2023-04-24T09:16:46;18.10;44.50
11647;DHT22;5880;52.342;9.662;2023-04-24T09:19:13;18.10;44.20
11647;DHT22;5880;52.342;9.662;2023-04-24T09:21:38;18.00;43.90
11647;DHT22;5880;52.342;9.662;2023-04-24T09:24:07;17.90;43.60
11647;DHT22;5880;52.342;9.662;2023-04-24T09:26:39;17.80;43.80
11647;DHT22;5880;52.342;9.662;2023-04-24T09:29:05;17.70;44.70
11647;DHT22;5880;52.342;9.662;2023-04-24T09:31:31;17.50;44.00
11647;DHT22;5880;52.342;9.662;2023-04-24T09:34:01;17.50;44.00
11647;DHT22;5880;52.342;9.662;2023-04-24T09:36:35;17.30;43.90
11647;DHT22;5880;52.342;9.662;2023-04-24T09:39:13;17.20;43.80
11647;DHT22;5880;52.342;9.662;2023-04-24T09:41:52;17.10;43.90
11647;DHT22;5880;52.342;9.662;2023-04-24T09:44:21;17.00;44.30
11647;DHT22;5880;52.342;9.662;2023-04-24T09:46:53;16.90;44.60
11647;DHT22;5880;52.342;9.662;2023-04-24T09:49:23;16.90;45.20
11647;DHT22;5880;52.342;9.662;2023-04-24T09:51:52;16.90;45.30
11647;DHT22;5880;52.342;9.662;2023-04-24T09:54:27;16.90;45.30
11647;DHT22;5880;52.342;9.662;2023-04-24T09:56:54;16.80;45.30
11647;DHT22;5880;52.342;9.662;2023-04-24T09:59:21;16.80;45.00
11647;DHT22;5880;52.342;9.662;2023-04-24T10:01:48;16.70;45.10
11647;DHT22;5880;52.342;9.662;2023-04-24T10:04:25;16.70;45.00
11647;DHT22;5880;52.342;9.662;2023-04-24T10:06:54;16.60;44.70
11647;DHT22;5880;52.342;9.662;2023-04-24T10:09:24;16.60;45.10
11647;DHT22;5880;52.342;9.662;2023-04-24T10:11:53;16.50;45.30
11647;DHT22;5880;52.342;9.662;2023-04-24T10:14:24;16.50;45.30
11647;DHT22;5880;52.342;9.662;2023-04-24T10:16:53;16.50;45.30
11647;DHT22;5880;52.342;9.662;2023-04-24T10:19:20;16.40;45.40
11647;DHT22;5880;52.342;9.662;2023-04-24T10:21:46;16.40;45.40
11647;DHT22;5880;52.342;9.662;2023-04-24T10:24:17;16.40;45.40
11647;DHT22;5880;52.342;9.662;2023-04-24T10:26:45;16.30;45.60
11647;DHT22;5880;52.342;9.662;2023-04-24T10:29:17;16.30;45.70
11647;DHT22;5880;52.342;9.662;2023-04-24T10:31:44;16.30;46.00
11647;DHT22;5880;52.342;9.662;2023-04-24T10:34:11;16.30;46.30
11647;DHT22;5880;52.342;9.662;2023-04-24T10:36:41;16.20;46.60
11647;DHT22;5880;52.342;9.662;2023-04-24T10:39:13;16.20;46.50
11647;DHT22;5880;52.342;9.662;2023-04-24T10:41:40;16.20;46.20
11647;DHT22;5880;52.342;9.662;2023-04-24T10:44:10;16.20;46.10
11647;DHT22;5880;52.342;9.662;2023-04-24T10:46:39;16.10;46.20
11647;DHT22;5880;52.342;9.662;2023-04-24T10:49:08;16.10;45.80
11647;DHT22;5880;52.342;9.662;2023-04-24T10:51:53;16.10;46.40
11647;DHT22;5880;52.342;9.662;2023-04-24T10:54:27;16.00;45.50
11647;DHT22;5880;52.342;9.662;2023-04-24T10:59:47;15.90;45.80
11647;DHT22;5880;52.342;9.662;2023-04-24T11:02:17;15.90;46.00
11647;DHT22;5880;52.342;9.662;2023-04-24T11:04:44;15.90;46.00
11647;DHT22;5880;52.342;9.662;2023-04-24T11:07:10;15.80;46.20
11647;DHT22;5880;52.342;9.662;2023-04-24T11:09:37;15.80;46.20
11647;DHT22;5880;52.342;9.662;2023-04-24T11:12:10;15.80;46.30
11647;DHT22;5880;52.342;9.662;2023-04-24T11:17:30;15.80;46.40
11647;DHT22;5880;52.342;9.662;2023-04-24T11:20:08;15.80;46.20
11647;DHT22;5880;52.342;9.662;2023-04-24T11:22:37;15.80;46.20
11647;DHT22;5880;52.342;9.662;2023-04-24T11:25:08;15.80;46.50
11647;DHT22;5880;52.342;9.662;2023-04-24T11:27:42;15.90;47.20
11647;DHT22;5880;52.342;9.662;2023-04-24T11:30:10;16.00;47.90
11647;DHT22;5880;52.342;9.662;2023-04-24T11:32:40;16.10;48.40
11647;DHT22;5880;52.342;9.662;2023-04-24T11:35:17;16.20;48.00
11647;DHT22;5880;52.342;9.662;2023-04-24T11:37:46;16.40;48.20
11647;DHT22;5880;52.342;9.662;2023-04-24T11:40:16;16.50;47.60
11647;DHT22;5880;52.342;9.662;2023-04-24T11:42:47;16.60;47.20
11647;DHT22;5880;52.342;9.662;2023-04-24T11:45:15;16.60;46.70
11647;DHT22;5880;52.342;9.662;2023-04-24T11:47:46;16.60;46.30
11647;DHT22;5880;52.342;9.662;2023-04-24T11:50:17;16.60;45.70
11647;DHT22;5880;52.342;9.662;2023-04-24T11:52:46;16.50;45.80
11647;DHT22;5880;52.342;9.662;2023-04-24T11:57:45;16.40;45.70
11647;DHT22;5880;52.342;9.662;2023-04-24T12:00:18;16.50;45.90
11647;DHT22;5880;52.342;9.662;2023-04-24T12:02:47;16.40;45.70
11647;DHT22;5880;52.342;9.662;2023-04-24T12:05:20;16.60;45.80
11647;DHT22;5880;52.342;9.662;2023-04-24T12:07:51;16.40;45.40
11647;DHT22;5880;52.342;9.662;2023-04-24T12:10:21;16.40;45.60
11647;DHT22;5880;52.342;9.662;2023-04-24T12:12:49;16.40;45.40
11647;DHT22;5880;52.342;9.662;2023-04-24T12:15:17;16.30;45.30
11647;DHT22;5880;52.342;9.662;2023-04-24T12:17:44;16.20;44.90
11647;DHT22;5880;52.342;9.662;2023-04-24T12:20:11;16.20;44.80
11647;DHT22;5880;52.342;9.662;2023-04-24T12:22:53;16.20;45.00
11647;DHT22;5880;52.342;9.662;2023-04-24T12:25:25;16.10;45.10
11647;DHT22;5880;52.342;9.662;2023-04-24T12:28:09;16.10;45.30
11647;DHT22;5880;52.342;9.662;2023-04-24T12:30:43;16.00;45.00
11647;DHT22;5880;52.342;9.662;2023-04-24T12:33:17;15.90;46.00
11647;DHT22;5880;52.342;9.662;2023-04-24T12:35:45;15.90;46.10
11647;DHT22;5880;52.342;9.662;2023-04-24T12:38:15;15.90;46.70
11647;DHT22;5880;52.342;9.662;2023-04-24T12:40:43;15.90;46.60
11647;DHT22;5880;52.342;9.662;2023-04-24T12:43:19;15.90;47.20
11647;DHT22;5880;52.342;9.662;2023-04-24T12:45:49;15.90;47.20
11647;DHT22;5880;52.342;9.662;2023-04-24T12:48:14;15.90;47.60
11647;DHT22;5880;52.342;9.662;2023-04-24T12:50:40;15.90;47.50
11647;DHT22;5880;52.342;9.662;2023-04-24T12:53:08;15.90;47.10
11647;DHT22;5880;52.342;9.662;2023-04-24T12:55:34;15.80;46.90
11647;DHT22;5880;52.342;9.662;2023-04-24T12:58:00;15.90;47.10
11647;DHT22;5880;52.342;9.662;2023-04-24T13:00:27;15.80;46.90
11647;DHT22;5880;52.342;9.662;2023-04-24T13:02:53;15.70;46.90
11647;DHT22;5880;52.342;9.662;2023-04-24T13:05:18;15.60;46.90
11647;DHT22;5880;52.342;9.662;2023-04-24T13:07:44;15.60;47.40
11647;DHT22;5880;52.342;9.662;2023-04-24T13:10:10;15.50;47.40
11647;DHT22;5880;52.342;9.662;2023-04-24T13:12:35;15.40;47.70
11647;DHT22;5880;52.342;9.662;2023-04-24T13:15:02;15.30;47.70
11647;DHT22;5880;52.342;9.662;2023-04-24T13:17:28;15.20;47.90
11647;DHT22;5880;52.342;9.662;2023-04-24T13:19:55;15.10;48.30
11647;DHT22;5880;52.342;9.662;2023-04-24T13:22:20;15.00;48.70
11647;DHT22;5880;52.342;9.662;2023-04-24T13:24:47;15.00;49.10
11647;DHT22;5880;52.342;9.662;2023-04-24T13:27:14;15.00;49.70
11647;DHT22;5880;52.342;9.662;2023-04-24T13:29:41;15.00;49.50
11647;DHT22;5880;52.342;9.662;2023-04-24T13:32:07;15.00;49.40
11647;DHT22;5880;52.342;9.662;2023-04-24T13:34:33;15.00;49.20
11647;DHT22;5880;52.342;9.662;2023-04-24T13:37:00;14.90;49.50
11647;DHT22;5880;52.342;9.662;2023-04-24T13:39:26;14.90;49.60
11647;DHT22;5880;52.342;9.662;2023-04-24T13:41:54;14.90;49.70
11647;DHT22;5880;52.342;9.662;2023-04-24T13:44:20;14.80;50.00
11647;DHT22;5880;52.342;9.662;2023-04-24T13:46:49;14.80;50.30
11647;DHT22;5880;52.342;9.662;2023-04-24T13:49:17;14.80;50.30
11647;DHT22;5880;52.342;9.662;2023-04-24T13:51:44;14.70;50.50
11647;DHT22;5880;52.342;9.662;2023-04-24T13:54:09;14.70;50.70
11647;DHT22;5880;52.342;9.662;2023-04-24T13:56:35;14.60;50.80
11647;DHT22;5880;52.342;9.662;2023-04-24T13:59:01;14.60;50.80
11647;DHT22;5880;52.342;9.662;2023-04-24T14:01:27;14.50;50.90
11647;DHT22;5880;52.342;9.662;2023-04-24T14:03:55;14.40;50.90
11647;DHT22;5880;52.342;9.662;2023-04-24T14:06:21;14.40;51.50
11647;DHT22;5880;52.342;9.662;2023-04-24T14:08:48;14.30;51.90
11647;DHT22;5880;52.342;9.662;2023-04-24T14:11:14;14.30;52.20
11647;DHT22;5880;52.342;9.662;2023-04-24T14:13:41;14.20;52.20
11647;DHT22;5880;52.342;9.662;2023-04-24T14:16:07;14.20;52.80
11647;DHT22;5880;52.342;9.662;2023-04-24T14:18:33;14.10;53.00
11647;DHT22;5880;52.342;9.662;2023-04-24T14:20:59;14.00;53.00
11647;DHT22;5880;52.342;9.662;2023-04-24T14:23:27;13.90;53.10
11647;DHT22;5880;52.342;9.662;2023-04-24T14:25:53;13.90;53.50
11647;DHT22;5880;52.342;9.662;2023-04-24T14:28:19;13.80;53.30
11647;DHT22;5880;52.342;9.662;2023-04-24T14:30:49;13.70;53.50
11647;DHT22;5880;52.342;9.662;2023-04-24T14:33:15;13.60;53.40
11647;DHT22;5880;52.342;9.662;2023-04-24T14:35:41;13.50;54.00
11647;DHT22;5880;52.342;9.662;2023-04-24T14:38:10;13.40;54.70
11647;DHT22;5880;52.342;9.662;2023-04-24T14:40:36;13.30;54.80
11647;DHT22;5880;52.342;9.662;2023-04-24T14:43:03;13.30;55.10
11647;DHT22;5880;52.342;9.662;2023-04-24T14:45:28;12.90;54.90
11647;DHT22;5880;52.342;9.662;2023-04-24T14:47:55;13.20;55.60
11647;DHT22;5880;52.342;9.662;2023-04-24T14:50:22;13.20;55.80
11647;DHT22;5880;52.342;9.662;2023-04-24T14:52:47;13.10;56.00
11647;DHT22;5880;52.342;9.662;2023-04-24T14:55:13;13.10;56.00
11647;DHT22;5880;52.342;9.662;2023-04-24T14:57:39;13.10;56.10
11647;DHT22;5880;52.342;9.662;2023-04-24T15:00:06;13.10;56.60
11647;DHT22;5880;52.342;9.662;2023-04-24T15:02:34;13.10;56.90
11647;DHT22;5880;52.342;9.662;2023-04-24T15:05:05;13.10;57.00
11647;DHT22;5880;52.342;9.662;2023-04-24T15:07:32;13.10;57.10
11647;DHT22;5880;52.342;9.662;2023-04-24T15:09:58;13.10;57.00
11647;DHT22;5880;52.342;9.662;2023-04-24T15:12:24;13.20;56.60
11647;DHT22;5880;52.342;9.662;2023-04-24T15:14:50;13.20;56.50
11647;DHT22;5880;52.342;9.662;2023-04-24T15:17:15;13.20;56.60
11647;DHT22;5880;52.342;9.662;2023-04-24T15:19:41;13.20;56.80
11647;DHT22;5880;52.342;9.662;2023-04-24T15:22:07;13.10;57.30
11647;DHT22;5880;52.342;9.662;2023-04-24T15:24:32;13.10;57.40
11647;DHT22;5880;52.342;9.662;2023-04-24T15:26:59;13.00;57.40
11647;DHT22;5880;52.342;9.662;2023-04-24T15:29:24;13.10;58.10
11647;DHT22;5880;52.342;9.662;2023-04-24T15:31:51;13.10;57.90
11647;DHT22;5880;52.342;9.662;2023-04-24T15:34:17;13.10;58.30
11647;DHT22;5880;52.342;9.662;2023-04-24T15:36:42;13.10;58.80
11647;DHT22;5880;52.342;9.662;2023-04-24T15:39:08;13.10;58.80
11647;DHT22;5880;52.342;9.662;2023-04-24T15:41:35;13.20;58.70
11647;DHT22;5880;52.342;9.662;2023-04-24T15:44:00;13.20;58.50
11647;DHT22;5880;52.342;9.662;2023-04-24T15:46:26;13.30;58.40
11647;DHT22;5880;52.342;9.662;2023-04-24T15:48:52;13.30;58.40
11647;DHT22;5880;52.342;9.662;2023-04-24T15:51:18;13.30;59.00